createdAt,value
2017-12-06T00:00:02.675Z,1019.89
2017-12-06T00:00:43.252Z,1019.85
2017-12-06T00:01:23.844Z,1019.89
2017-12-06T00:02:04.410Z,1019.85
2017-12-06T00:02:44.986Z,1019.86
2017-12-06T00:03:25.554Z,1019.81
2017-12-06T00:04:06.130Z,1019.84
2017-12-06T00:04:46.706Z,1019.9
2017-12-06T00:05:27.339Z,1019.94
2017-12-06T00:06:07.907Z,1019.83
2017-12-06T00:06:48.505Z,1019.91
2017-12-06T00:07:29.077Z,1019.89
2017-12-06T00:08:09.630Z,1019.97
2017-12-06T00:08:50.242Z,1019.85
2017-12-06T00:09:30.798Z,1019.87
2017-12-06T00:10:11.365Z,1019.92
2017-12-06T00:10:51.926Z,1019.96
2017-12-06T00:11:32.521Z,1019.93
2017-12-06T00:12:13.103Z,1019.91
2017-12-06T00:12:53.671Z,1019.94
2017-12-06T00:13:34.291Z,1019.95
2017-12-06T00:14:14.849Z,1019.95
2017-12-06T00:14:55.419Z,1019.94
2017-12-06T00:15:35.984Z,1019.97
2017-12-06T00:16:16.555Z,1019.89
2017-12-06T00:16:57.164Z,1020
2017-12-06T00:17:37.726Z,1019.99
2017-12-06T00:18:18.317Z,1019.99
2017-12-06T00:18:58.898Z,1019.99
2017-12-06T00:19:39.479Z,1020.02
2017-12-06T00:20:20.054Z,1020.04
2017-12-06T00:21:00.620Z,1020.12
2017-12-06T00:21:41.237Z,1019.99
2017-12-06T00:22:21.806Z,1020.13
2017-12-06T00:23:02.381Z,1020.02
2017-12-06T00:23:42.957Z,1020.09
2017-12-06T00:24:23.517Z,1020.09
2017-12-06T00:25:04.137Z,1020.17
2017-12-06T00:25:44.709Z,1020.13
2017-12-06T00:26:25.289Z,1020.08
2017-12-06T00:27:05.899Z,1020.1
2017-12-06T00:27:46.543Z,1020.06
2017-12-06T00:28:27.155Z,1020.13
2017-12-06T00:29:07.723Z,1020.13
2017-12-06T00:29:48.286Z,1020.11
2017-12-06T00:30:28.853Z,1020.07
2017-12-06T00:31:09.428Z,1020.1
2017-12-06T00:31:49.992Z,1020.13
2017-12-06T00:32:30.591Z,1020.08
2017-12-06T00:33:11.157Z,1020.09
2017-12-06T00:33:51.729Z,1020.1
2017-12-06T00:34:32.336Z,1020.13
2017-12-06T00:35:12.900Z,1020.1
2017-12-06T00:35:53.490Z,1020.07
2017-12-06T00:36:34.074Z,1020.07
2017-12-06T00:37:14.657Z,1020.06
2017-12-06T00:37:55.249Z,1020.08
2017-12-06T00:38:35.827Z,1020.05
2017-12-06T00:39:16.416Z,1020.03
2017-12-06T00:39:57.016Z,1020.04
2017-12-06T00:40:37.560Z,1020.01
2017-12-06T00:41:18.194Z,1020.08
2017-12-06T00:41:58.789Z,1020.07
2017-12-06T00:42:39.371Z,1020.13
2017-12-06T00:43:19.948Z,1020.06
2017-12-06T00:44:00.534Z,1020.07
2017-12-06T00:44:41.106Z,1020.06
2017-12-06T00:45:21.724Z,1020.02
2017-12-06T00:46:02.300Z,1020.09
2017-12-06T00:46:42.892Z,1020.03
2017-12-06T00:47:23.463Z,1020.04
2017-12-06T00:48:04.073Z,1020.08
2017-12-06T00:48:44.637Z,1020.09
2017-12-06T00:49:25.227Z,1020.12
2017-12-06T00:50:05.833Z,1020.05
2017-12-06T00:50:46.399Z,1020.1
2017-12-06T00:51:26.968Z,1020.12
2017-12-06T00:52:07.536Z,1019.94
2017-12-06T00:52:48.122Z,1020.12
2017-12-06T00:53:28.667Z,1020.15
2017-12-06T00:54:09.239Z,1020.09
2017-12-06T00:54:49.817Z,1020.09
2017-12-06T00:55:30.422Z,1020.06
2017-12-06T00:56:10.992Z,1020.1
2017-12-06T00:56:51.575Z,1020.1
2017-12-06T00:57:32.136Z,1020.09
2017-12-06T00:58:12.719Z,1020.05
2017-12-06T00:58:53.325Z,1020.08
2017-12-06T00:59:33.922Z,1020.08
2017-12-06T01:00:14.490Z,1020.07
2017-12-06T01:00:55.065Z,1020.13
2017-12-06T01:01:35.626Z,1020.07
2017-12-06T01:02:16.226Z,1020.09
2017-12-06T01:02:56.785Z,1020.12
2017-12-06T01:03:37.350Z,1020.11
2017-12-06T01:04:17.921Z,1020.1
2017-12-06T01:04:58.510Z,1020.12
2017-12-06T01:05:39.085Z,1020.19
2017-12-06T01:06:19.685Z,1020.16
2017-12-06T01:07:00.241Z,1020.03
2017-12-06T01:07:40.810Z,1020.19
2017-12-06T01:08:21.381Z,1020.16
2017-12-06T01:09:01.971Z,1020.21
2017-12-06T01:09:42.541Z,1020.14
2017-12-06T01:10:23.104Z,1020.13
2017-12-06T01:11:03.691Z,1020.16
2017-12-06T01:11:44.273Z,1020.21
2017-12-06T01:12:24.842Z,1020.26
2017-12-06T01:13:05.404Z,1020.28
2017-12-06T01:13:45.972Z,1020.17
2017-12-06T01:14:26.547Z,1020.27
2017-12-06T01:15:07.113Z,1020.24
2017-12-06T01:15:47.678Z,1020.29
2017-12-06T01:16:28.239Z,1020.3
2017-12-06T01:17:08.798Z,1020.27
2017-12-06T01:17:49.361Z,1020.32
2017-12-06T01:18:29.920Z,1020.27
2017-12-06T01:19:10.851Z,1020.24
2017-12-06T01:19:51.426Z,1020.23
2017-12-06T01:20:32.005Z,1020.26
2017-12-06T01:21:12.568Z,1020.37
2017-12-06T01:21:53.139Z,1020.33
2017-12-06T01:22:33.702Z,1020.27
2017-12-06T01:23:14.274Z,1020.3
2017-12-06T01:23:54.861Z,1020.26
2017-12-06T01:24:35.461Z,1020.4
2017-12-06T01:25:16.028Z,1020.36
2017-12-06T01:25:56.585Z,1020.34
2017-12-06T01:26:37.166Z,1020.34
2017-12-06T01:27:17.740Z,1020.33
2017-12-06T01:27:58.304Z,1020.33
2017-12-06T01:28:38.863Z,1020.35
2017-12-06T01:29:19.425Z,1020.28
2017-12-06T01:30:00.006Z,1020.33
2017-12-06T01:30:40.570Z,1020.31
2017-12-06T01:31:21.135Z,1020.35
2017-12-06T01:32:01.706Z,1020.23
2017-12-06T01:32:42.269Z,1020.33
2017-12-06T01:33:22.842Z,1020.31
2017-12-06T01:34:03.432Z,1020.34
2017-12-06T01:34:44.008Z,1020.32
2017-12-06T01:35:24.558Z,1020.29
2017-12-06T01:36:05.145Z,1020.27
2017-12-06T01:36:45.739Z,1020.31
2017-12-06T01:37:26.329Z,1020.25
2017-12-06T01:38:06.905Z,1020.26
2017-12-06T01:38:47.475Z,1020.29
2017-12-06T01:39:28.036Z,1020.24
2017-12-06T01:40:08.610Z,1020.27
2017-12-06T01:40:49.411Z,1020.23
2017-12-06T01:41:30.212Z,1020.26
2017-12-06T01:42:10.774Z,1020.25
2017-12-06T01:42:51.359Z,1020.29
2017-12-06T01:43:31.936Z,1020.29
2017-12-06T01:44:12.518Z,1020.3
2017-12-06T01:44:53.094Z,1020.29
2017-12-06T01:45:33.657Z,1020.3
2017-12-06T01:46:14.222Z,1020.34
2017-12-06T01:46:54.783Z,1020.3
2017-12-06T01:47:35.371Z,1020.34
2017-12-06T01:48:15.938Z,1020.34
2017-12-06T01:48:56.515Z,1020.34
2017-12-06T01:49:37.120Z,1020.3
2017-12-06T01:50:17.701Z,1020.38
2017-12-06T01:50:58.262Z,1020.31
2017-12-06T01:51:38.825Z,1020.32
2017-12-06T01:52:19.395Z,1020.33
2017-12-06T01:52:59.976Z,1020.3
2017-12-06T01:53:40.579Z,1020.32
2017-12-06T01:54:21.142Z,1020.19
2017-12-06T01:55:01.754Z,1020.26
2017-12-06T01:55:42.318Z,1020.26
2017-12-06T01:56:22.893Z,1020.27
2017-12-06T01:57:03.490Z,1020.35
2017-12-06T01:57:44.067Z,1020.25
2017-12-06T01:58:24.615Z,1020.28
2017-12-06T01:59:05.235Z,1020.28
2017-12-06T01:59:45.775Z,1020.3
2017-12-06T02:00:26.350Z,1020.25
2017-12-06T02:01:06.921Z,1020.25
2017-12-06T02:01:47.486Z,1020.23
2017-12-06T02:02:28.061Z,1020.18
2017-12-06T02:03:08.625Z,1020.2
2017-12-06T02:03:49.192Z,1020.14
2017-12-06T02:04:29.764Z,1020.2
2017-12-06T02:05:10.360Z,1020.19
2017-12-06T02:05:50.940Z,1020.17
2017-12-06T02:06:31.565Z,1020.16
2017-12-06T02:07:12.146Z,1020.24
2017-12-06T02:07:52.713Z,1020.21
2017-12-06T02:08:33.284Z,1020.25
2017-12-06T02:09:13.846Z,1020.18
2017-12-06T02:09:54.425Z,1020.22
2017-12-06T02:10:34.991Z,1020.23
2017-12-06T02:11:15.558Z,1020.24
2017-12-06T02:11:56.113Z,1020.22
2017-12-06T02:12:36.680Z,1020.19
2017-12-06T02:13:17.252Z,1020.18
2017-12-06T02:13:57.822Z,1020.29
2017-12-06T02:14:38.387Z,1020.12
2017-12-06T02:15:18.951Z,1020.17
2017-12-06T02:15:59.509Z,1020.15
2017-12-06T02:16:40.072Z,1020.13
2017-12-06T02:17:20.644Z,1020.14
2017-12-06T02:18:01.200Z,1020.12
2017-12-06T02:18:41.769Z,1020.11
2017-12-06T02:19:22.324Z,1020.13
2017-12-06T02:20:02.935Z,1020.09
2017-12-06T02:20:43.522Z,1020.11
2017-12-06T02:21:24.113Z,1020.12
2017-12-06T02:22:04.688Z,1020.12
2017-12-06T02:22:45.265Z,1020.13
2017-12-06T02:23:25.828Z,1020.13
2017-12-06T02:24:06.388Z,1020.07
2017-12-06T02:24:46.937Z,1020.11
2017-12-06T02:25:27.509Z,1020.1
2017-12-06T02:26:08.095Z,1020.05
2017-12-06T02:26:48.659Z,1020.09
2017-12-06T02:27:29.235Z,1020.11
2017-12-06T02:28:09.805Z,1020.07
2017-12-06T02:28:50.368Z,1020.13
2017-12-06T02:29:30.948Z,1020.06
2017-12-06T02:30:11.514Z,1020.09
2017-12-06T02:30:52.094Z,1020.03
2017-12-06T02:31:32.649Z,1020
2017-12-06T02:32:13.210Z,1020.03
2017-12-06T02:32:53.781Z,1020.01
2017-12-06T02:33:34.348Z,1019.99
2017-12-06T02:34:14.919Z,1020.03
2017-12-06T02:34:55.513Z,1019.99
2017-12-06T02:35:36.057Z,1019.95
2017-12-06T02:36:16.628Z,1019.95
2017-12-06T02:36:57.202Z,1019.97
2017-12-06T02:37:37.769Z,1019.97
2017-12-06T02:38:18.344Z,1019.96
2017-12-06T02:38:58.911Z,1019.96
2017-12-06T02:39:39.456Z,1020.01
2017-12-06T02:40:20.043Z,1019.98
2017-12-06T02:41:00.604Z,1019.93
2017-12-06T02:41:41.196Z,1019.99
2017-12-06T02:42:21.766Z,1019.89
2017-12-06T02:43:02.338Z,1019.92
2017-12-06T02:43:42.895Z,1019.98
2017-12-06T02:44:23.456Z,1019.93
2017-12-06T02:45:04.027Z,1019.93
2017-12-06T02:45:44.617Z,1019.95
2017-12-06T02:46:25.203Z,1019.95
2017-12-06T02:47:05.785Z,1019.92
2017-12-06T02:47:46.342Z,1020
2017-12-06T02:48:26.917Z,1019.95
2017-12-06T02:49:07.508Z,1019.94
2017-12-06T02:49:48.099Z,1020
2017-12-06T02:50:28.670Z,1019.99
2017-12-06T02:51:09.280Z,1019.97
2017-12-06T02:51:49.848Z,1019.96
2017-12-06T02:52:30.427Z,1019.9
2017-12-06T02:53:10.997Z,1019.98
2017-12-06T02:53:51.605Z,1019.96
2017-12-06T02:54:32.166Z,1019.86
2017-12-06T02:55:12.731Z,1019.91
2017-12-06T02:55:53.292Z,1019.91
2017-12-06T02:56:33.941Z,1019.9
2017-12-06T02:57:14.455Z,1019.85
2017-12-06T02:57:55.035Z,1019.82
2017-12-06T02:58:35.599Z,1019.82
2017-12-06T02:59:16.170Z,1019.83
2017-12-06T02:59:56.734Z,1019.91
2017-12-06T03:00:37.294Z,1019.85
2017-12-06T03:01:17.865Z,1019.83
2017-12-06T03:01:58.435Z,1019.78
2017-12-06T03:02:39.006Z,1019.77
2017-12-06T03:03:19.569Z,1019.78
2017-12-06T03:04:00.151Z,1019.79
2017-12-06T03:04:40.707Z,1019.77
2017-12-06T03:05:21.270Z,1019.81
2017-12-06T03:06:01.899Z,1019.75
2017-12-06T03:06:42.563Z,1019.78
2017-12-06T03:07:23.159Z,1019.73
2017-12-06T03:08:03.732Z,1019.81
2017-12-06T03:08:44.303Z,1019.69
2017-12-06T03:09:24.869Z,1019.7
2017-12-06T03:10:05.448Z,1019.74
2017-12-06T03:10:46.014Z,1019.74
2017-12-06T03:11:26.588Z,1019.71
2017-12-06T03:12:07.144Z,1019.68
2017-12-06T03:12:47.718Z,1019.75
2017-12-06T03:13:28.297Z,1019.71
2017-12-06T03:14:08.870Z,1019.7
2017-12-06T03:14:49.425Z,1019.69
2017-12-06T03:15:30.000Z,1019.69
2017-12-06T03:16:10.575Z,1019.67
2017-12-06T03:16:51.138Z,1019.66
2017-12-06T03:17:31.702Z,1019.69
2017-12-06T03:18:12.321Z,1019.67
2017-12-06T03:18:52.951Z,1019.67
2017-12-06T03:19:33.530Z,1019.67
2017-12-06T03:20:14.094Z,1019.68
2017-12-06T03:20:54.683Z,1019.73
2017-12-06T03:21:35.248Z,1019.6
2017-12-06T03:22:15.813Z,1019.62
2017-12-06T03:22:56.386Z,1019.64
2017-12-06T03:23:36.969Z,1019.7
2017-12-06T03:24:17.535Z,1019.63
2017-12-06T03:24:58.121Z,1019.63
2017-12-06T03:25:38.695Z,1019.63
2017-12-06T03:26:19.263Z,1019.63
2017-12-06T03:26:59.831Z,1019.64
2017-12-06T03:27:40.410Z,1019.64
2017-12-06T03:28:20.982Z,1019.63
2017-12-06T03:29:01.547Z,1019.65
2017-12-06T03:29:42.127Z,1019.66
2017-12-06T03:30:22.694Z,1019.67
2017-12-06T03:31:03.273Z,1019.66
2017-12-06T03:31:43.842Z,1019.57
2017-12-06T03:32:24.401Z,1019.64
2017-12-06T03:33:04.967Z,1019.66
2017-12-06T03:33:45.548Z,1019.63
2017-12-06T03:34:26.110Z,1019.56
2017-12-06T03:35:06.673Z,1019.59
2017-12-06T03:35:47.250Z,1019.61
2017-12-06T03:36:27.806Z,1019.6
2017-12-06T03:37:08.399Z,1019.59
2017-12-06T03:37:48.968Z,1019.63
2017-12-06T03:38:29.538Z,1019.6
2017-12-06T03:39:10.099Z,1019.62
2017-12-06T03:39:50.666Z,1019.61
2017-12-06T03:40:31.246Z,1019.58
2017-12-06T03:41:11.803Z,1019.53
2017-12-06T03:41:52.369Z,1019.56
2017-12-06T03:42:32.932Z,1019.56
2017-12-06T03:43:13.498Z,1019.51
2017-12-06T03:43:54.064Z,1019.57
2017-12-06T03:44:34.633Z,1019.54
2017-12-06T03:45:15.196Z,1019.55
2017-12-06T03:45:55.769Z,1019.51
2017-12-06T03:46:36.344Z,1019.48
2017-12-06T03:47:16.907Z,1019.52
2017-12-06T03:47:57.472Z,1019.5
2017-12-06T03:48:38.040Z,1019.5
2017-12-06T03:49:18.615Z,1019.47
2017-12-06T03:49:59.227Z,1019.39
2017-12-06T03:50:39.789Z,1019.44
2017-12-06T03:51:20.370Z,1019.46
2017-12-06T03:52:00.948Z,1019.46
2017-12-06T03:52:41.515Z,1019.49
2017-12-06T03:53:22.108Z,1019.44
2017-12-06T03:54:02.753Z,1019.48
2017-12-06T03:54:43.294Z,1019.46
2017-12-06T03:55:23.888Z,1019.43
2017-12-06T03:56:04.458Z,1019.47
2017-12-06T03:56:45.017Z,1019.43
2017-12-06T03:57:25.585Z,1019.44
2017-12-06T03:58:06.180Z,1019.49
2017-12-06T03:58:46.755Z,1019.42
2017-12-06T03:59:27.324Z,1019.45
2017-12-06T04:00:07.890Z,1019.49
2017-12-06T04:00:48.454Z,1019.43
2017-12-06T04:01:29.064Z,1019.49
2017-12-06T04:02:09.640Z,1019.5
2017-12-06T04:02:50.262Z,1019.47
2017-12-06T04:03:30.839Z,1019.47
2017-12-06T04:04:11.420Z,1019.46
2017-12-06T04:04:51.987Z,1019.54
2017-12-06T04:05:32.600Z,1019.5
2017-12-06T04:06:13.166Z,1019.49
2017-12-06T04:06:53.721Z,1019.45
2017-12-06T04:07:34.289Z,1019.47
2017-12-06T04:08:14.839Z,1019.57
2017-12-06T04:08:55.434Z,1019.54
2017-12-06T04:09:35.991Z,1019.48
2017-12-06T04:10:16.566Z,1019.5
2017-12-06T04:10:57.143Z,1019.52
2017-12-06T04:11:37.695Z,1019.53
2017-12-06T04:12:18.268Z,1019.52
2017-12-06T04:12:58.840Z,1019.53
2017-12-06T04:13:39.420Z,1019.52
2017-12-06T04:14:19.999Z,1019.53
2017-12-06T04:15:00.564Z,1019.56
2017-12-06T04:15:41.138Z,1019.49
2017-12-06T04:16:21.718Z,1019.49
2017-12-06T04:17:02.307Z,1019.43
2017-12-06T04:17:42.906Z,1019.45
2017-12-06T04:18:23.492Z,1019.44
2017-12-06T04:19:04.065Z,1019.43
2017-12-06T04:19:44.644Z,1019.42
2017-12-06T04:20:25.209Z,1019.44
2017-12-06T04:21:05.773Z,1019.37
2017-12-06T04:21:46.367Z,1019.36
2017-12-06T04:22:26.923Z,1019.32
2017-12-06T04:23:07.490Z,1019.37
2017-12-06T04:23:48.052Z,1019.3
2017-12-06T04:24:28.643Z,1019.28
2017-12-06T04:25:09.199Z,1019.36
2017-12-06T04:25:49.778Z,1019.34
2017-12-06T04:26:30.352Z,1019.37
2017-12-06T04:27:10.918Z,1019.4
2017-12-06T04:27:51.498Z,1019.36
2017-12-06T04:28:32.058Z,1019.31
2017-12-06T04:29:12.655Z,1019.37
2017-12-06T04:29:53.213Z,1019.39
2017-12-06T04:30:33.782Z,1019.31
2017-12-06T04:31:14.354Z,1019.38
2017-12-06T04:31:54.964Z,1019.29
2017-12-06T04:32:35.545Z,1019.33
2017-12-06T04:33:16.122Z,1019.34
2017-12-06T04:33:56.686Z,1019.34
2017-12-06T04:34:37.276Z,1019.4
2017-12-06T04:35:17.869Z,1019.34
2017-12-06T04:35:58.440Z,1019.44
2017-12-06T04:36:38.988Z,1019.41
2017-12-06T04:37:19.556Z,1019.37
2017-12-06T04:38:00.144Z,1019.33
2017-12-06T04:38:40.705Z,1019.35
2017-12-06T04:39:21.269Z,1019.37
2017-12-06T04:40:01.842Z,1019.32
2017-12-06T04:40:42.405Z,1019.33
2017-12-06T04:41:22.962Z,1019.35
2017-12-06T04:42:03.544Z,1019.28
2017-12-06T04:42:44.102Z,1019.34
2017-12-06T04:43:24.698Z,1019.33
2017-12-06T04:44:05.243Z,1019.34
2017-12-06T04:44:45.808Z,1019.27
2017-12-06T04:45:26.406Z,1019.31
2017-12-06T04:46:06.997Z,1019.33
2017-12-06T04:46:47.574Z,1019.3
2017-12-06T04:47:28.138Z,1019.42
2017-12-06T04:48:08.698Z,1019.35
2017-12-06T04:48:49.285Z,1019.29
2017-12-06T04:49:29.870Z,1019.27
2017-12-06T04:50:10.453Z,1019.31
2017-12-06T04:50:51.008Z,1019.24
2017-12-06T04:51:31.594Z,1019.21
2017-12-06T04:52:12.187Z,1019.2
2017-12-06T04:52:52.765Z,1019.19
2017-12-06T04:53:33.368Z,1019.24
2017-12-06T04:54:13.948Z,1019.23
2017-12-06T04:54:54.545Z,1019.19
2017-12-06T04:55:35.141Z,1019.21
2017-12-06T04:56:15.724Z,1019.17
2017-12-06T04:56:56.283Z,1019.24
2017-12-06T04:57:36.912Z,1019.14
2017-12-06T04:58:17.429Z,1019.16
2017-12-06T04:58:58.004Z,1019.21
2017-12-06T04:59:39.975Z,1019.16
2017-12-06T05:00:20.644Z,1019.13
2017-12-06T05:01:01.199Z,1019.15
2017-12-06T05:01:41.781Z,1019.26
2017-12-06T05:02:22.364Z,1019.16
2017-12-06T05:03:02.965Z,1019.24
2017-12-06T05:03:43.575Z,1019.2
2017-12-06T05:04:24.125Z,1019.19
2017-12-06T05:05:04.687Z,1019.2
2017-12-06T05:05:45.272Z,1019.19
2017-12-06T05:06:25.862Z,1019.24
2017-12-06T05:07:06.433Z,1019.24
2017-12-06T05:07:47.012Z,1019.25
2017-12-06T05:08:27.570Z,1019.22
2017-12-06T05:09:08.153Z,1019.31
2017-12-06T05:09:48.733Z,1019.23
2017-12-06T05:10:29.318Z,1019.25
2017-12-06T05:11:09.907Z,1019.25
2017-12-06T05:11:50.479Z,1019.25
2017-12-06T05:12:31.053Z,1019.28
2017-12-06T05:13:11.623Z,1019.26
2017-12-06T05:13:52.194Z,1019.16
2017-12-06T05:14:32.764Z,1019.21
2017-12-06T05:15:13.334Z,1019.27
2017-12-06T05:15:53.903Z,1019.2
2017-12-06T05:16:34.489Z,1019.24
2017-12-06T05:17:15.107Z,1019.19
2017-12-06T05:17:55.675Z,1019.16
2017-12-06T05:18:36.243Z,1019.23
2017-12-06T05:19:16.821Z,1019.2
2017-12-06T05:19:57.392Z,1019.23
2017-12-06T05:20:37.968Z,1019.13
2017-12-06T05:21:18.530Z,1019.22
2017-12-06T05:21:59.101Z,1019.23
2017-12-06T05:22:39.680Z,1019.22
2017-12-06T05:23:20.250Z,1019.13
2017-12-06T05:24:00.808Z,1019.14
2017-12-06T05:24:41.377Z,1019.16
2017-12-06T05:25:22.006Z,1019.18
2017-12-06T05:26:02.562Z,1019.18
2017-12-06T05:26:43.119Z,1019.17
2017-12-06T05:27:23.676Z,1019.19
2017-12-06T05:28:04.253Z,1019.16
2017-12-06T05:28:44.830Z,1019.17
2017-12-06T05:29:25.406Z,1019.09
2017-12-06T05:30:05.995Z,1019.2
2017-12-06T05:30:46.561Z,1019.14
2017-12-06T05:31:27.131Z,1019.15
2017-12-06T05:32:07.716Z,1019.14
2017-12-06T05:32:48.282Z,1019.07
2017-12-06T05:33:28.858Z,1019.04
2017-12-06T05:34:09.414Z,1019.13
2017-12-06T05:34:50.004Z,1019.17
2017-12-06T05:35:30.567Z,1019.13
2017-12-06T05:36:11.127Z,1019.14
2017-12-06T05:36:51.688Z,1019.16
2017-12-06T05:37:32.257Z,1019.16
2017-12-06T05:38:12.827Z,1019.07
2017-12-06T05:38:53.400Z,1019.11
2017-12-06T05:39:33.983Z,1019.16
2017-12-06T05:40:14.564Z,1019.13
2017-12-06T05:40:55.133Z,1019.12
2017-12-06T05:41:35.716Z,1019.11
2017-12-06T05:42:16.305Z,1019.04
2017-12-06T05:42:56.880Z,1019.09
2017-12-06T05:43:37.410Z,1019.07
2017-12-06T05:44:17.988Z,1019.07
2017-12-06T05:44:58.582Z,1019.06
2017-12-06T05:45:39.147Z,1019.06
2017-12-06T05:46:19.695Z,1019.15
2017-12-06T05:47:00.278Z,1019.13
2017-12-06T05:47:40.844Z,1019.07
2017-12-06T05:48:21.403Z,1019.11
2017-12-06T05:49:01.964Z,1019.1
2017-12-06T05:49:42.541Z,1019.06
2017-12-06T05:50:23.110Z,1019.09
2017-12-06T05:51:03.657Z,1019.16
2017-12-06T05:51:44.234Z,1019.12
2017-12-06T05:52:24.804Z,1019.15
2017-12-06T05:53:05.375Z,1019.14
2017-12-06T05:53:45.944Z,1019.1
2017-12-06T05:54:26.520Z,1019.16
2017-12-06T05:55:07.062Z,1019.09
2017-12-06T05:55:47.654Z,1019.09
2017-12-06T05:56:28.210Z,1019.15
2017-12-06T05:57:08.809Z,1019.11
2017-12-06T05:57:49.382Z,1019.13
2017-12-06T05:58:29.964Z,1019.19
2017-12-06T05:59:10.548Z,1019.07
2017-12-06T05:59:51.101Z,1019.04
2017-12-06T06:00:31.656Z,1019.11
2017-12-06T06:01:12.224Z,1019.14
2017-12-06T06:01:52.775Z,1019.1
2017-12-06T06:02:33.339Z,1019.19
2017-12-06T06:03:13.955Z,1019.13
2017-12-06T06:03:54.510Z,1019.14
2017-12-06T06:04:35.077Z,1019.16
2017-12-06T06:05:15.721Z,1019.14
2017-12-06T06:05:56.269Z,1019.13
2017-12-06T06:06:36.847Z,1019.08
2017-12-06T06:07:17.452Z,1019.09
2017-12-06T06:07:58.042Z,1019.12
2017-12-06T06:08:38.650Z,1019.08
2017-12-06T06:09:19.243Z,1019.07
2017-12-06T06:09:59.810Z,1019.02
2017-12-06T06:10:40.371Z,1019.06
2017-12-06T06:11:20.939Z,1019.09
2017-12-06T06:12:02.214Z,1019.07
2017-12-06T06:12:42.945Z,1019.07
2017-12-06T06:13:23.544Z,1019.05
2017-12-06T06:14:04.141Z,1019.11
2017-12-06T06:14:44.718Z,1019.01
2017-12-06T06:15:25.308Z,1019.1
2017-12-06T06:16:05.924Z,1019.07
2017-12-06T06:16:46.497Z,1019.07
2017-12-06T06:17:27.941Z,1019.1
2017-12-06T06:18:08.526Z,1019.1
2017-12-06T06:18:49.099Z,1019.01
2017-12-06T06:19:29.674Z,1019.04
2017-12-06T06:20:10.277Z,1019.03
2017-12-06T06:20:50.888Z,1019.04
2017-12-06T06:21:31.481Z,1019.02
2017-12-06T06:22:12.104Z,1019.09
2017-12-06T06:22:52.704Z,1019.02
2017-12-06T06:23:33.303Z,1019.04
2017-12-06T06:24:14.199Z,1019.04
2017-12-06T06:24:54.814Z,1019.11
2017-12-06T06:25:35.448Z,1019.12
2017-12-06T06:26:16.020Z,1019.06
2017-12-06T06:26:56.603Z,1019.15
2017-12-06T06:27:37.178Z,1019.12
2017-12-06T06:28:17.754Z,1019.14
2017-12-06T06:28:58.366Z,1019.11
2017-12-06T06:29:38.926Z,1019.16
2017-12-06T06:30:19.531Z,1019.14
2017-12-06T06:31:00.123Z,1019.12
2017-12-06T06:31:40.727Z,1019.12
2017-12-06T06:32:21.303Z,1019.19
2017-12-06T06:33:01.906Z,1019.13
2017-12-06T06:33:42.485Z,1019.16
2017-12-06T06:34:23.051Z,1019.14
2017-12-06T06:35:03.631Z,1019.21
2017-12-06T06:35:44.190Z,1019.17
2017-12-06T06:36:24.777Z,1019.2
2017-12-06T06:37:05.354Z,1019.25
2017-12-06T06:37:45.951Z,1019.3
2017-12-06T06:38:26.513Z,1019.25
2017-12-06T06:39:07.094Z,1019.21
2017-12-06T06:39:47.681Z,1019.27
2017-12-06T06:40:28.292Z,1019.24
2017-12-06T06:41:08.881Z,1019.23
2017-12-06T06:41:49.495Z,1019.19
2017-12-06T06:42:30.096Z,1019.24
2017-12-06T06:43:10.659Z,1019.21
2017-12-06T06:43:51.214Z,1019.23
2017-12-06T06:44:31.795Z,1019.24
2017-12-06T06:45:12.363Z,1019.27
2017-12-06T06:45:52.968Z,1019.25
2017-12-06T06:46:33.548Z,1019.25
2017-12-06T06:47:14.129Z,1019.22
2017-12-06T06:47:54.712Z,1019.28
2017-12-06T06:48:35.310Z,1019.24
2017-12-06T06:49:15.881Z,1019.28
2017-12-06T06:49:56.477Z,1019.31
2017-12-06T06:50:37.077Z,1019.3
2017-12-06T06:51:17.616Z,1019.31
2017-12-06T06:51:58.186Z,1019.33
2017-12-06T06:52:38.756Z,1019.32
2017-12-06T06:53:19.382Z,1019.21
2017-12-06T06:53:59.893Z,1019.29
2017-12-06T06:54:40.482Z,1019.35
2017-12-06T06:55:21.047Z,1019.33
2017-12-06T06:56:01.628Z,1019.33
2017-12-06T06:56:42.262Z,1019.38
2017-12-06T06:57:22.828Z,1019.33
2017-12-06T06:58:03.417Z,1019.34
2017-12-06T06:58:43.989Z,1019.35
2017-12-06T06:59:24.551Z,1019.35
2017-12-06T07:00:05.148Z,1019.39
2017-12-06T07:00:45.697Z,1019.37
2017-12-06T07:01:26.269Z,1019.4
2017-12-06T07:02:06.879Z,1019.38
2017-12-06T07:02:47.432Z,1019.33
2017-12-06T07:03:28.060Z,1019.36
2017-12-06T07:04:08.638Z,1019.32
2017-12-06T07:04:49.199Z,1019.31
2017-12-06T07:05:29.767Z,1019.29
2017-12-06T07:06:10.333Z,1019.25
2017-12-06T07:06:50.936Z,1019.29
2017-12-06T07:07:31.541Z,1019.25
2017-12-06T07:08:12.141Z,1019.27
2017-12-06T07:08:52.732Z,1019.23
2017-12-06T07:09:33.311Z,1019.29
2017-12-06T07:10:13.888Z,1019.32
2017-12-06T07:10:54.507Z,1019.21
2017-12-06T07:11:35.074Z,1019.27
2017-12-06T07:12:15.659Z,1019.34
2017-12-06T07:12:56.238Z,1019.29
2017-12-06T07:13:36.815Z,1019.26
2017-12-06T07:14:19.058Z,1019.34
2017-12-06T07:14:59.651Z,1019.33
2017-12-06T07:15:40.569Z,1019.32
2017-12-06T07:16:21.152Z,1019.26
2017-12-06T07:17:01.721Z,1019.26
2017-12-06T07:17:42.323Z,1019.28
2017-12-06T07:18:22.880Z,1019.3
2017-12-06T07:19:03.444Z,1019.31
2017-12-06T07:19:44.008Z,1019.33
2017-12-06T07:20:24.589Z,1019.35
2017-12-06T07:21:05.172Z,1019.34
2017-12-06T07:21:45.743Z,1019.36
2017-12-06T07:22:26.335Z,1019.3
2017-12-06T07:23:06.932Z,1019.29
2017-12-06T07:23:47.516Z,1019.29
2017-12-06T07:24:28.136Z,1019.3
2017-12-06T07:25:08.705Z,1019.27
2017-12-06T07:25:49.292Z,1019.31
2017-12-06T07:26:29.882Z,1019.34
2017-12-06T07:27:10.487Z,1019.28
2017-12-06T07:27:51.072Z,1019.35
2017-12-06T07:28:31.651Z,1019.29
2017-12-06T07:29:12.227Z,1019.28
2017-12-06T07:29:52.795Z,1019.32
2017-12-06T07:30:33.356Z,1019.3
2017-12-06T07:31:13.936Z,1019.32
2017-12-06T07:31:54.506Z,1019.27
2017-12-06T07:32:35.070Z,1019.26
2017-12-06T07:33:15.651Z,1019.31
2017-12-06T07:33:56.259Z,1019.26
2017-12-06T07:34:36.831Z,1019.27
2017-12-06T07:35:17.406Z,1019.32
2017-12-06T07:35:57.988Z,1019.28
2017-12-06T07:36:38.559Z,1019.35
2017-12-06T07:37:19.168Z,1019.27
2017-12-06T07:37:59.744Z,1019.28
2017-12-06T07:38:40.325Z,1019.24
2017-12-06T07:39:20.899Z,1019.35
2017-12-06T07:40:01.502Z,1019.33
2017-12-06T07:40:42.057Z,1019.25
2017-12-06T07:41:22.696Z,1019.34
2017-12-06T07:42:03.281Z,1019.3
2017-12-06T07:42:43.856Z,1019.33
2017-12-06T07:43:24.417Z,1019.29
2017-12-06T07:44:04.991Z,1019.28
2017-12-06T07:44:45.559Z,1019.29
2017-12-06T07:45:26.238Z,1019.27
2017-12-06T07:46:06.812Z,1019.31
2017-12-06T07:46:47.415Z,1019.26
2017-12-06T07:47:28.011Z,1019.24
2017-12-06T07:48:08.566Z,1019.27
2017-12-06T07:48:49.180Z,1019.31
2017-12-06T07:49:29.789Z,1019.27
2017-12-06T07:50:10.377Z,1019.31
2017-12-06T07:50:50.948Z,1019.29
2017-12-06T07:51:31.536Z,1019.33
2017-12-06T07:52:12.100Z,1019.36
2017-12-06T07:52:52.684Z,1019.26
2017-12-06T07:53:33.257Z,1019.3
2017-12-06T07:54:13.845Z,1019.32
2017-12-06T07:54:54.438Z,1019.29
2017-12-06T07:55:35.023Z,1019.31
2017-12-06T07:56:15.584Z,1019.26
2017-12-06T07:56:56.999Z,1019.25
2017-12-06T07:57:37.568Z,1019.26
2017-12-06T07:58:18.128Z,1019.26
2017-12-06T07:58:58.694Z,1019.21
2017-12-06T07:59:39.270Z,1019.2
2017-12-06T08:00:19.858Z,1019.21
2017-12-06T08:01:00.426Z,1019.31
2017-12-06T08:01:40.987Z,1019.24
2017-12-06T08:02:21.548Z,1019.27
2017-12-06T08:03:02.123Z,1019.29
2017-12-06T08:03:42.690Z,1019.25
2017-12-06T08:04:23.266Z,1019.23
2017-12-06T08:05:03.820Z,1019.24
2017-12-06T08:05:44.425Z,1019.27
2017-12-06T08:06:24.988Z,1019.29
2017-12-06T08:07:05.592Z,1019.23
2017-12-06T08:07:46.157Z,1019.22
2017-12-06T08:08:26.791Z,1019.17
2017-12-06T08:09:07.391Z,1019.2
2017-12-06T08:09:47.978Z,1019.16
2017-12-06T08:10:28.604Z,1019.19
2017-12-06T08:11:09.187Z,1019.25
2017-12-06T08:11:49.757Z,1019.13
2017-12-06T08:12:30.404Z,1019.23